Time;durP1;ratioP1;P1;durP2;ratioP2;P2;SDS_P1;SDS_P2;PMS_P1;PMS_P2;Temp;Humidity;BMP_temperature;BMP_pressure;BME280_temperature;BME280_humidity;BME280_pressure;Samples;Min_cycle;Max_cycle;Signal;HPM_P1;HPM_P2
2022/03/23 00:04:45;;;;;;;7.65;5.85;;;17.20;56.80;;;;;;10371446;28;20036;-60
2022/03/23 00:09:47;;;;;;;8.38;6.35;;;17.20;57.00;;;;;;10371679;28;20050;-60
2022/03/23 00:14:47;;;;;;;8.25;5.72;;;17.20;56.70;;;;;;10375371;28;20034;-61
2022/03/23 00:19:48;;;;;;;7.03;6.18;;;17.20;56.30;;;;;;10378863;28;20109;-61
2022/03/23 00:24:49;;;;;;;7.55;6.03;;;17.20;56.30;;;;;;10378799;28;20108;-60
2022/03/23 00:29:50;;;;;;;7.78;6.28;;;17.20;56.40;;;;;;10378451;28;20049;-60
2022/03/23 00:34:51;;;;;;;9.25;5.80;;;17.20;56.20;;;;;;10386904;28;20029;-60
2022/03/23 00:39:51;;;;;;;8.90;6.40;;;17.20;56.40;;;;;;10384899;28;20025;-60
2022/03/23 00:44:52;;;;;;;6.85;6.03;;;17.20;56.40;;;;;;10387732;28;20107;-60
2022/03/23 00:49:53;;;;;;;8.88;6.30;;;17.20;56.90;;;;;;10418815;28;20033;-60
2022/03/23 00:54:54;;;;;;;8.77;6.82;;;17.10;56.30;;;;;;10393312;28;20197;-60
2022/03/23 00:59:54;;;;;;;8.40;6.53;;;17.20;56.30;;;;;;10377645;28;20057;-60
2022/03/23 01:04:55;;;;;;;7.95;6.43;;;17.20;56.90;;;;;;10377172;28;20061;-60
2022/03/23 01:09:56;;;;;;;8.48;5.93;;;17.10;57.10;;;;;;10376700;28;20449;-60
2022/03/23 01:14:57;;;;;;;8.45;6.32;;;17.20;56.00;;;;;;10376288;28;20117;-60
2022/03/23 01:19:58;;;;;;;8.65;6.72;;;17.20;55.60;;;;;;10371610;28;20029;-61
2022/03/23 01:24:59;;;;;;;6.80;5.65;;;17.10;55.60;;;;;;10375408;28;20042;-60
2022/03/23 01:30:00;;;;;;;7.50;6.50;;;17.10;56.70;;;;;;10375283;28;20126;-60
2022/03/23 01:35:02;;;;;;;9.10;6.70;;;17.10;55.60;;;;;;10351095;28;20103;-61
2022/03/23 01:40:07;;;;;;;6.93;5.93;;;17.10;55.40;;;;;;10416662;28;20536;-60
2022/03/23 01:45:09;;;;;;;8.80;6.53;;;17.10;55.40;;;;;;10371972;28;20628;-61
2022/03/23 01:50:10;;;;;;;6.68;5.50;;;17.10;55.40;;;;;;10416065;28;20033;-61
2022/03/23 01:55:14;;;;;;;8.52;6.82;;;17.10;55.40;;;;;;10382083;28;20482;-60
2022/03/23 02:00:16;;;;;;;8.80;7.28;;;17.10;55.40;;;;;;10375005;28;20105;-61
2022/03/23 02:05:17;;;;;;;9.95;7.13;;;17.10;56.10;;;;;;10375018;28;20036;-60
2022/03/23 02:10:18;;;;;;;8.15;7.35;;;17.10;55.30;;;;;;10374641;28;20057;-60
2022/03/23 02:15:19;;;;;;;8.05;6.55;;;17.10;55.10;;;;;;10374198;28;20042;-60
2022/03/23 02:20:20;;;;;;;9.35;6.28;;;17.10;55.10;;;;;;10374281;28;20553;-60
2022/03/23 02:25:25;;;;;;;7.20;6.13;;;17.10;55.10;;;;;;10374127;28;20156;-61
2022/03/23 02:30:26;;;;;;;8.00;6.75;;;17.10;56.10;;;;;;10373760;28;20052;-61
2022/03/23 02:35:27;;;;;;;7.88;6.07;;;17.10;55.90;;;;;;10386336;28;20509;-60
2022/03/23 02:40:27;;;;;;;8.25;6.50;;;17.10;55.10;;;;;;10414438;28;20018;-60
2022/03/23 02:45:28;;;;;;;8.43;7.05;;;17.10;54.90;;;;;;10383124;28;20072;-61
2022/03/23 02:50:29;;;;;;;9.88;7.75;;;17.20;54.80;;;;;;10383016;28;20071;-60
2022/03/23 03:06:37;;;;;;;8.15;6.65;;;17.10;54.70;;;;;;10401719;28;20041;-60
2022/03/23 03:11:38;;;;;;;7.03;5.63;;;17.10;54.60;;;;;;10382454;28;20501;-60
2022/03/23 03:16:39;;;;;;;7.18;6.20;;;17.10;54.50;;;;;;10382327;28;20444;-60
2022/03/23 03:21:39;;;;;;;8.20;6.60;;;17.10;54.30;;;;;;10382249;28;20034;-62
2022/03/23 03:26:40;;;;;;;7.93;6.90;;;17.10;54.30;;;;;;10412739;28;20025;-60
2022/03/23 03:31:41;;;;;;;9.75;6.90;;;17.10;54.30;;;;;;10382098;28;20112;-60
2022/03/23 03:36:42;;;;;;;8.25;6.75;;;17.10;54.30;;;;;;10376225;28;20363;-60
2022/03/23 03:41:42;;;;;;;8.23;6.20;;;17.10;54.10;;;;;;10371987;28;20101;-61
2022/03/23 03:46:45;;;;;;;7.53;6.32;;;17.10;54.10;;;;;;10371969;28;20032;-60
2022/03/23 03:51:46;;;;;;;10.20;6.85;;;17.10;54.20;;;;;;10378979;28;20033;-60
2022/03/23 03:56:47;;;;;;;9.73;7.10;;;17.00;54.10;;;;;;10392118;28;20030;-61
2022/03/23 04:01:48;;;;;;;8.15;6.95;;;17.10;54.10;;;;;;10379638;28;20017;-60
2022/03/23 04:06:49;;;;;;;9.18;7.22;;;17.10;53.90;;;;;;10379620;28;20108;-61
2022/03/23 04:11:49;;;;;;;9.27;6.60;;;17.10;54.00;;;;;;10379170;28;20040;-60
2022/03/23 04:16:50;;;;;;;8.07;6.53;;;17.10;53.90;;;;;;10378675;28;20032;-60
2022/03/23 04:21:51;;;;;;;8.73;7.30;;;17.10;53.70;;;;;;10378431;28;20053;-61
2022/03/23 04:26:51;;;;;;;10.70;6.68;;;17.20;53.70;;;;;;10378129;28;20104;-60
2022/03/23 04:31:53;;;;;;;7.20;6.43;;;17.10;53.60;;;;;;10378427;28;20127;-60
2022/03/23 04:36:53;;;;;;;7.10;6.22;;;17.10;53.70;;;;;;10403271;28;20436;-60
2022/03/23 04:41:54;;;;;;;10.57;6.72;;;17.00;53.70;;;;;;10418987;28;20136;-60
2022/03/23 04:46:55;;;;;;;9.20;6.95;;;17.00;53.70;;;;;;10418755;28;20033;-60
2022/03/23 04:51:55;;;;;;;7.53;6.30;;;17.10;54.20;;;;;;10417848;28;20077;-61
2022/03/23 04:56:56;;;;;;;7.28;6.57;;;17.10;53.40;;;;;;10372995;28;20034;-61
2022/03/23 05:01:57;;;;;;;8.82;6.85;;;17.10;53.20;;;;;;10376795;28;20062;-61
2022/03/23 05:06:57;;;;;;;7.18;6.47;;;17.10;53.10;;;;;;10377113;28;20545;-61
2022/03/23 05:11:58;;;;;;;7.78;6.00;;;17.10;53.10;;;;;;10383665;28;20053;-61
2022/03/23 05:16:59;;;;;;;7.03;5.95;;;17.10;53.20;;;;;;10392218;28;20112;-61
2022/03/23 05:22:00;;;;;;;11.50;7.88;;;17.10;53.30;;;;;;10392269;28;20053;-61
2022/03/23 05:27:00;;;;;;;8.98;7.25;;;17.10;53.20;;;;;;10388254;28;20065;-61
2022/03/23 05:32:01;;;;;;;7.57;6.60;;;17.10;53.20;;;;;;10376464;28;20702;-61
2022/03/23 05:37:02;;;;;;;8.10;6.88;;;17.10;53.10;;;;;;10386843;28;20033;-62
2022/03/23 05:42:03;;;;;;;9.65;6.50;;;17.10;53.10;;;;;;10375670;28;20037;-60
2022/03/23 05:47:05;;;;;;;11.15;7.65;;;17.10;52.90;;;;;;10385716;28;20029;-60
2022/03/23 05:52:06;;;;;;;8.00;7.13;;;17.10;52.80;;;;;;10382911;28;20104;-59
2022/03/23 05:57:07;;;;;;;9.93;6.82;;;17.20;52.80;;;;;;10371042;28;20026;-56
2022/03/23 06:02:07;;;;;;;10.00;7.20;;;17.20;53.00;;;;;;10375988;28;20160;-59
2022/03/23 06:07:08;;;;;;;14.35;8.13;;;17.30;53.60;;;;;;10371536;28;20033;-59
2022/03/23 06:12:12;;;;;;;11.30;7.60;;;17.30;54.10;;;;;;10373473;28;20025;-59
2022/03/23 06:17:13;;;;;;;16.55;8.35;;;17.30;55.90;;;;;;10370869;28;20038;-58
2022/03/23 06:22:14;;;;;;;13.77;8.07;;;17.30;55.00;;;;;;10375204;28;20052;-59
2022/03/23 06:27:14;;;;;;;13.07;7.20;;;17.30;54.80;;;;;;10391999;28;20096;-58
2022/03/23 06:32:16;;;;;;;17.17;8.80;;;17.40;54.40;;;;;;10376315;28;20049;-60
2022/03/23 06:37:16;;;;;;;21.95;7.53;;;17.30;55.50;;;;;;10383945;28;20053;-59
2022/03/23 06:42:17;;;;;;;18.33;8.75;;;17.40;55.60;;;;;;10397867;28;20473;-61
2022/03/23 06:47:18;;;;;;;16.38;8.40;;;17.40;56.10;;;;;;10372765;28;20444;-63
2022/03/23 06:52:18;;;;;;;17.48;8.63;;;17.30;56.00;;;;;;10356427;28;20097;-64
2022/03/23 06:57:19;;;;;;;15.43;7.75;;;17.30;56.30;;;;;;10389003;28;20115;-59
2022/03/23 07:02:20;;;;;;;22.90;8.45;;;17.30;56.00;;;;;;10389306;28;20109;-59
2022/03/23 07:07:20;;;;;;;14.98;8.65;;;17.30;56.40;;;;;;10380715;28;20128;-59
2022/03/23 07:12:21;;;;;;;17.13;6.80;;;17.20;56.40;;;;;;10412642;28;20068;-61
2022/03/23 07:17:23;;;;;;;16.10;7.88;;;17.00;56.40;;;;;;10392531;28;20481;-60
2022/03/23 07:22:23;;;;;;;25.73;9.15;;;17.00;56.60;;;;;;10378573;28;20063;-59
2022/03/23 07:27:24;;;;;;;19.20;8.95;;;17.00;56.70;;;;;;10391606;28;20129;-58
2022/03/23 07:32:25;;;;;;;24.27;9.00;;;17.00;56.80;;;;;;10362855;28;20072;-57
2022/03/23 07:37:26;;;;;;;19.80;8.07;;;16.90;56.90;;;;;;10385602;28;20104;-57
2022/03/23 07:42:27;;;;;;;27.38;9.52;;;16.90;57.20;;;;;;10396473;28;20029;-59
2022/03/23 07:47:27;;;;;;;35.85;10.90;;;16.80;57.50;;;;;;10384826;28;20042;-59
2022/03/23 07:52:28;;;;;;;42.00;10.73;;;16.80;57.90;;;;;;10399979;28;20040;-58
2022/03/23 07:57:29;;;;;;;29.38;10.00;;;16.90;58.20;;;;;;10373109;28;20025;-59
2022/03/23 08:02:30;;;;;;;31.70;9.30;;;16.90;58.30;;;;;;10379020;28;20519;-58
2022/03/23 08:07:31;;;;;;;25.48;9.52;;;16.90;58.80;;;;;;10387371;28;20041;-59
2022/03/23 08:12:31;;;;;;;49.70;12.38;;;16.90;58.00;;;;;;10409962;28;20041;-58
2022/03/23 08:17:32;;;;;;;31.50;11.05;;;16.90;58.20;;;;;;10375109;28;20034;-59
2022/03/23 08:22:33;;;;;;;34.78;10.52;;;16.90;58.60;;;;;;10372958;28;20069;-59
2022/03/23 08:27:33;;;;;;;29.13;9.75;;;16.90;58.40;;;;;;10395251;28;20525;-58
2022/03/23 08:32:34;;;;;;;28.30;10.20;;;16.80;58.40;;;;;;10374851;28;20034;-58
2022/03/23 08:37:36;;;;;;;25.48;8.73;;;16.90;58.20;;;;;;10386677;28;20105;-58
2022/03/23 08:42:37;;;;;;;26.13;9.23;;;16.80;58.80;;;;;;10378134;28;20053;-58
2022/03/23 08:47:39;;;;;;;23.73;9.82;;;16.80;58.20;;;;;;10376975;28;20482;-57
2022/03/23 08:52:41;;;;;;;26.13;9.43;;;16.90;58.20;;;;;;10375989;28;20049;-58
2022/03/23 08:57:42;;;;;;;21.60;8.52;;;16.90;58.80;;;;;;10379323;28;20068;-57
2022/03/23 09:02:43;;;;;;;28.13;9.88;;;16.90;58.20;;;;;;10381332;28;20060;-57
2022/03/23 09:07:44;;;;;;;20.02;8.60;;;16.90;58.20;;;;;;10378203;28;20516;-58
2022/03/23 09:12:45;;;;;;;23.50;10.15;;;16.90;58.20;;;;;;10393992;28;20059;-57
2022/03/23 09:17:46;;;;;;;21.30;9.18;;;16.90;58.30;;;;;;10396794;28;20378;-57
2022/03/23 09:22:47;;;;;;;18.30;8.10;;;16.90;58.30;;;;;;10405991;28;20152;-58
2022/03/23 09:27:49;;;;;;;16.95;8.07;;;16.90;58.30;;;;;;10407326;28;20501;-57
2022/03/23 09:32:51;;;;;;;13.25;6.90;;;17.00;58.40;;;;;;10389233;28;20058;-57
2022/03/23 09:37:52;;;;;;;14.55;7.35;;;17.00;58.40;;;;;;10396041;28;20514;-57
2022/03/23 09:43:08;;;;;;;16.95;8.57;;;17.00;58.30;;;;;;10390922;28;20164;-58
2022/03/23 09:48:10;;;;;;;12.18;6.82;;;17.00;58.30;;;;;;10395831;28;20096;-58
2022/03/23 09:53:12;;;;;;;11.25;6.97;;;17.10;58.30;;;;;;10397250;28;20038;-57
2022/03/23 09:58:12;;;;;;;14.70;6.68;;;17.10;58.20;;;;;;10374587;28;20048;-58
2022/03/23 10:03:13;;;;;;;13.13;7.28;;;17.10;58.20;;;;;;10382392;28;20030;-57
2022/03/23 10:08:44;;;;;;;15.35;6.68;;;17.10;58.10;;;;;;10386417;28;20060;-57
2022/03/23 10:14:42;;;;;;;15.15;7.40;;;17.20;58.10;;;;;;10386609;28;20486;-58
2022/03/23 10:19:44;;;;;;;12.98;7.00;;;17.20;58.00;;;;;;10403837;28;20036;-58
2022/03/23 10:24:44;;;;;;;17.35;7.03;;;17.20;57.60;;;;;;10391618;28;20025;-58
2022/03/23 10:29:49;;;;;;;10.50;6.47;;;17.20;57.60;;;;;;10379884;28;20112;-58
2022/03/23 10:34:54;;;;;;;12.60;6.97;;;17.20;57.60;;;;;;10377945;28;20140;-58
2022/03/23 10:40:11;;;;;;;16.20;7.25;;;17.30;57.70;;;;;;10386932;28;20036;-57
2022/03/23 10:45:17;;;;;;;12.25;7.38;;;17.30;57.50;;;;;;10413732;28;20057;-58
2022/03/23 10:50:22;;;;;;;15.82;7.47;;;17.40;57.50;;;;;;10401495;28;20453;-57
2022/03/23 10:55:27;;;;;;;12.40;8.57;;;17.40;57.50;;;;;;10385358;28;20028;-58
2022/03/23 11:00:32;;;;;;;13.23;6.97;;;17.40;57.40;;;;;;10403111;28;20119;-58
2022/03/23 11:05:38;;;;;;;12.55;7.05;;;17.40;57.40;;;;;;10377857;28;20044;-58
2022/03/23 11:16:02;;;;;;;9.77;6.45;;;17.50;57.50;;;;;;10389668;28;20046;-58
2022/03/23 11:21:03;;;;;;;12.32;7.22;;;17.50;57.50;;;;;;10354318;28;20041;-58
2022/03/23 11:26:08;;;;;;;11.43;7.57;;;17.50;57.50;;;;;;10393002;28;20581;-58
2022/03/23 11:31:12;;;;;;;13.07;6.60;;;17.50;57.40;;;;;;10365812;28;20068;-57
2022/03/23 11:36:13;;;;;;;9.10;6.10;;;17.60;57.40;;;;;;10375196;28;20040;-57
2022/03/23 11:41:14;;;;;;;9.10;6.40;;;17.60;57.40;;;;;;10365496;28;20125;-57
2022/03/23 11:46:24;;;;;;;8.32;6.85;;;17.60;57.40;;;;;;10401152;28;20038;-58
2022/03/23 11:52:18;;;;;;;11.00;5.97;;;17.60;57.40;;;;;;10379089;28;20033;-57
2022/03/23 11:57:19;;;;;;;14.40;7.55;;;17.60;57.50;;;;;;10350066;28;20470;-57
2022/03/23 12:02:19;;;;;;;9.40;5.30;;;17.60;57.80;;;;;;10373148;28;20053;-57
2022/03/23 12:07:20;;;;;;;8.60;5.93;;;17.70;57.50;;;;;;10387104;28;20398;-57
2022/03/23 12:12:33;;;;;;;7.13;5.40;;;17.70;57.60;;;;;;10362917;28;20117;-57
2022/03/23 12:17:36;;;;;;;8.43;5.13;;;17.70;57.50;;;;;;10395633;28;20033;-58
2022/03/23 12:22:54;;;;;;;5.78;4.65;;;17.70;57.50;;;;;;10402724;28;20074;-58
2022/03/23 12:28:02;;;;;;;9.48;6.20;;;17.70;57.60;;;;;;10390172;28;20045;-57
2022/03/23 12:33:14;;;;;;;7.47;5.00;;;17.70;57.60;;;;;;10381926;28;20076;-57
2022/03/23 12:38:26;;;;;;;8.25;4.97;;;17.80;57.60;;;;;;10396434;28;20057;-57
2022/03/23 12:43:46;;;;;;;8.25;5.55;;;17.80;57.70;;;;;;10377857;28;20040;-57
2022/03/23 12:59:51;;;;;;;5.80;5.07;;;17.80;57.70;;;;;;10379827;28;20116;-57
2022/03/23 13:04:52;;;;;;;7.90;4.93;;;17.80;57.70;;;;;;10392345;28;20022;-57
2022/03/23 13:09:57;;;;;;;7.80;5.47;;;17.90;57.70;;;;;;10391536;28;20068;-57
2022/03/23 13:14:59;;;;;;;7.53;4.68;;;17.90;57.70;;;;;;10383181;28;20030;-58
2022/03/23 13:20:00;;;;;;;6.65;4.50;;;17.90;57.60;;;;;;10391126;28;20041;-57
2022/03/23 13:25:07;;;;;;;7.78;5.07;;;18.00;57.60;;;;;;10391764;28;20026;-57
2022/03/23 13:30:12;;;;;;;7.00;4.35;;;18.00;57.60;;;;;;10363108;28;20088;-57
2022/03/23 13:35:21;;;;;;;6.43;4.43;;;18.00;57.50;;;;;;10383868;28;20045;-58
2022/03/23 13:43:19;;;;;;;6.03;4.45;;;18.00;57.50;;;;;;10386178;28;20029;-57
2022/03/23 13:45:57;;;;;;;9.30;4.70;;;18.10;57.60;;;;;;10394847;28;20042;-57
2022/03/23 13:51:00;;;;;;;8.13;5.13;;;18.10;57.60;;;;;;10402589;28;20061;-58
2022/03/23 13:56:01;;;;;;;5.47;4.05;;;18.10;57.60;;;;;;10392109;28;20052;-57
2022/03/23 14:01:02;;;;;;;5.35;4.25;;;18.10;57.70;;;;;;10374851;28;20056;-57
2022/03/23 14:06:07;;;;;;;8.35;4.25;;;18.10;57.70;;;;;;10374114;28;20034;-56
2022/03/23 14:11:11;;;;;;;4.60;3.50;;;18.10;57.70;;;;;;10375930;28;20038;-58
2022/03/23 14:16:13;;;;;;;5.50;3.83;;;18.10;57.70;;;;;;10370569;28;20500;-57
2022/03/23 14:21:17;;;;;;;5.35;4.15;;;18.10;57.80;;;;;;10398858;28;20466;-58
2022/03/23 14:26:31;;;;;;;4.70;3.50;;;18.00;57.80;;;;;;10363405;28;20069;-57
2022/03/23 14:31:32;;;;;;;5.90;3.42;;;18.10;57.80;;;;;;10409370;28;20045;-57
2022/03/23 14:36:34;;;;;;;6.88;4.00;;;18.00;57.80;;;;;;10382631;28;20072;-57
2022/03/23 14:41:36;;;;;;;6.13;3.50;;;18.00;57.90;;;;;;10373418;28;20116;-57
2022/03/23 14:46:42;;;;;;;5.72;3.67;;;18.00;57.80;;;;;;10382491;28;20116;-58
2022/03/23 14:51:48;;;;;;;9.70;5.03;;;18.00;57.40;;;;;;10376635;28;20029;-58
2022/03/23 14:56:49;;;;;;;7.85;4.22;;;18.00;57.10;;;;;;10381601;28;20045;-56
2022/03/23 15:01:56;;;;;;;7.43;4.55;;;18.10;57.20;;;;;;10380531;28;20374;-56
2022/03/23 15:17:35;;;;;;;10.43;6.13;;;18.10;54.80;;;;;;10396448;28;20049;-57
2022/03/23 15:22:38;;;;;;;8.07;5.05;;;18.10;54.60;;;;;;10394617;28;20385;-58
2022/03/23 15:27:38;;;;;;;23.95;8.18;;;18.10;54.00;;;;;;10405390;28;20045;-57
2022/03/23 15:32:39;;;;;;;25.15;7.35;;;18.20;53.80;;;;;;10364207;28;20042;-58
2022/03/23 15:37:40;;;;;;;26.75;7.13;;;18.10;53.80;;;;;;10375571;28;20124;-58
2022/03/23 15:48:01;;;;;;;36.50;9.57;;;18.10;54.10;;;;;;10399855;28;20046;-60
2022/03/23 15:53:03;;;;;;;43.85;9.82;;;18.10;54.60;;;;;;10395162;28;21773;-60
2022/03/23 15:58:04;;;;;;;32.17;8.98;;;18.10;54.80;;;;;;10391567;28;20030;-59
2022/03/23 16:03:05;;;;;;;28.35;7.57;;;18.00;55.00;;;;;;10415236;28;20030;-59
2022/03/23 16:08:05;;;;;;;24.63;9.27;;;18.00;55.70;;;;;;10418817;28;20445;-58
2022/03/23 16:13:06;;;;;;;27.85;8.20;;;18.00;55.30;;;;;;10401970;28;20474;-58
2022/03/23 16:18:07;;;;;;;32.70;8.18;;;18.00;55.50;;;;;;10392374;28;20022;-59
2022/03/23 16:23:08;;;;;;;23.58;6.60;;;18.00;55.70;;;;;;10402350;28;20033;-59
2022/03/23 16:28:09;;;;;;;20.73;6.85;;;17.90;55.90;;;;;;10413516;28;20132;-59
2022/03/23 16:33:13;;;;;;;23.00;6.85;;;17.90;55.90;;;;;;10379556;28;20113;-58
2022/03/23 16:38:15;;;;;;;18.95;6.40;;;17.90;56.10;;;;;;10377493;28;20022;-58
2022/03/23 16:43:15;;;;;;;14.32;6.15;;;17.90;56.20;;;;;;10377526;28;20060;-58
2022/03/23 16:48:17;;;;;;;17.27;6.97;;;17.80;56.30;;;;;;10377392;28;20127;-58
2022/03/23 16:53:18;;;;;;;11.80;5.30;;;17.80;56.40;;;;;;10389376;28;20048;-59
2022/03/23 16:58:18;;;;;;;12.70;5.38;;;17.80;56.50;;;;;;10385475;28;20112;-58
2022/03/23 17:13:58;;;;;;;10.05;5.95;;;17.70;56.70;;;;;;10398184;28;20132;-60
2022/03/23 17:19:02;;;;;;;22.88;6.22;;;17.70;56.80;;;;;;10392306;28;20037;-58
2022/03/23 17:24:03;;;;;;;21.23;6.97;;;17.70;57.70;;;;;;10361860;28;20421;-58
2022/03/23 17:29:04;;;;;;;17.42;6.57;;;18.00;59.80;;;;;;10392852;28;20045;-59
2022/03/23 17:34:05;;;;;;;21.35;6.45;;;18.10;59.60;;;;;;10374375;28;20065;-58
2022/03/23 17:39:06;;;;;;;25.15;7.90;;;18.10;59.30;;;;;;10387214;28;20034;-59
2022/03/23 17:44:07;;;;;;;22.63;6.03;;;18.00;59.60;;;;;;10365667;28;20026;-60
2022/03/23 17:49:08;;;;;;;26.42;8.35;;;18.00;59.50;;;;;;10388242;28;20034;-62
2022/03/23 17:54:11;;;;;;;35.03;9.50;;;17.90;59.50;;;;;;10403433;28;20455;-59
2022/03/23 17:59:12;;;;;;;36.30;7.18;;;17.90;60.40;;;;;;10400297;28;20373;-59
2022/03/23 18:04:14;;;;;;;21.52;6.30;;;17.90;60.30;;;;;;10382438;28;20428;-59
2022/03/23 18:09:15;;;;;;;30.77;7.97;;;17.90;60.40;;;;;;10376130;28;20079;-59
2022/03/23 18:14:15;;;;;;;23.67;6.90;;;17.80;60.20;;;;;;10389713;28;20037;-60
2022/03/23 18:19:18;;;;;;;24.77;7.10;;;17.80;59.80;;;;;;10381174;28;20069;-60
2022/03/23 18:24:18;;;;;;;21.45;5.95;;;17.70;59.50;;;;;;10387561;28;20076;-60
2022/03/23 18:29:19;;;;;;;24.75;7.10;;;17.70;59.40;;;;;;10404303;28;20551;-58
2022/03/23 18:34:20;;;;;;;24.50;5.78;;;17.60;59.20;;;;;;10381678;28;20033;-59
2022/03/23 18:39:21;;;;;;;21.52;6.85;;;17.70;59.50;;;;;;10384539;28;20034;-60
2022/03/23 18:44:21;;;;;;;20.15;6.55;;;17.70;59.70;;;;;;10366382;28;20018;-59
2022/03/23 18:49:23;;;;;;;20.55;6.15;;;17.80;59.80;;;;;;10365744;28;20401;-59
2022/03/23 18:54:24;;;;;;;23.90;5.82;;;17.70;59.70;;;;;;10380134;28;20034;-59
2022/03/23 18:59:24;;;;;;;18.20;5.95;;;17.80;59.70;;;;;;10379445;28;20592;-59
2022/03/23 19:04:25;;;;;;;18.65;6.65;;;17.80;59.70;;;;;;10386208;28;20474;-59
2022/03/23 19:09:26;;;;;;;14.93;5.38;;;17.80;59.60;;;;;;10363576;28;20064;-59
2022/03/23 19:14:26;;;;;;;16.35;5.88;;;17.80;59.60;;;;;;10365068;28;20105;-58
2022/03/23 19:19:30;;;;;;;13.73;6.30;;;17.80;59.60;;;;;;10392340;28;20195;-59
2022/03/23 19:24:31;;;;;;;15.60;5.40;;;17.80;59.70;;;;;;10365125;28;20051;-59
2022/03/23 19:29:31;;;;;;;17.30;6.72;;;17.80;59.80;;;;;;10385457;28;20179;-59
2022/03/23 19:34:33;;;;;;;15.32;5.90;;;17.90;59.80;;;;;;10406483;28;20025;-59
2022/03/23 19:39:34;;;;;;;14.55;5.78;;;17.80;60.20;;;;;;10410819;28;20045;-59
2022/03/23 19:44:35;;;;;;;18.02;5.68;;;17.90;59.50;;;;;;10401373;28;20059;-59
2022/03/23 19:49:36;;;;;;;26.77;6.93;;;17.80;59.60;;;;;;10373816;28;20033;-59
2022/03/23 19:54:37;;;;;;;26.80;6.80;;;17.80;59.70;;;;;;10390392;28;20054;-59
2022/03/23 19:59:37;;;;;;;11.80;4.97;;;17.80;59.70;;;;;;10376385;28;20042;-56
2022/03/23 20:04:38;;;;;;;21.20;6.63;;;17.80;59.40;;;;;;10369884;28;20462;-58
2022/03/23 20:09:39;;;;;;;14.52;5.80;;;17.80;59.40;;;;;;10382407;28;20460;-59
2022/03/23 20:14:40;;;;;;;16.13;6.80;;;17.70;60.10;;;;;;10384669;28;20131;-57
2022/03/23 20:19:40;;;;;;;15.48;5.88;;;17.70;59.30;;;;;;10380826;28;20038;-58
2022/03/23 20:24:41;;;;;;;14.60;6.20;;;17.70;59.30;;;;;;10352146;28;20053;-58
2022/03/23 20:29:42;;;;;;;16.33;6.43;;;17.70;59.20;;;;;;10376136;28;20128;-58
2022/03/23 20:34:42;;;;;;;16.00;6.28;;;17.60;59.00;;;;;;10384907;28;20030;-58
2022/03/23 20:39:43;;;;;;;15.50;6.13;;;17.60;59.00;;;;;;10376429;28;20113;-58
2022/03/23 20:44:44;;;;;;;12.70;6.13;;;17.60;59.10;;;;;;10417363;28;20462;-58
2022/03/23 20:49:44;;;;;;;12.07;5.55;;;17.60;59.20;;;;;;10414081;28;20118;-57
2022/03/23 20:54:45;;;;;;;11.50;5.82;;;17.60;59.20;;;;;;10392654;28;20179;-58
2022/03/23 20:59:46;;;;;;;10.68;6.00;;;17.60;59.00;;;;;;10377524;28;20454;-58
2022/03/23 21:04:49;;;;;;;11.52;5.85;;;17.60;59.10;;;;;;10389343;28;20062;-57
2022/03/23 21:09:50;;;;;;;10.70;6.13;;;17.60;58.70;;;;;;10391964;28;20034;-58
2022/03/23 21:14:52;;;;;;;9.90;5.40;;;17.60;58.60;;;;;;10369966;28;20067;-58
2022/03/23 21:19:53;;;;;;;12.95;5.40;;;17.50;58.60;;;;;;10376692;28;20034;-58
2022/03/23 21:24:54;;;;;;;10.57;5.80;;;17.50;58.40;;;;;;10372364;28;20026;-58
2022/03/23 21:29:55;;;;;;;10.68;5.53;;;17.50;58.30;;;;;;10414195;28;20485;-57
2022/03/23 21:34:55;;;;;;;9.55;5.60;;;17.50;58.20;;;;;;10394816;28;20030;-57
2022/03/23 21:39:56;;;;;;;14.07;5.68;;;17.50;58.20;;;;;;10375910;28;20073;-58
2022/03/23 21:44:56;;;;;;;10.73;5.45;;;17.50;58.10;;;;;;10375743;28;20050;-58
2022/03/23 21:49:57;;;;;;;9.30;5.53;;;17.50;58.00;;;;;;10375843;28;20034;-58
2022/03/23 21:54:58;;;;;;;9.20;5.28;;;17.50;58.00;;;;;;10384593;28;20068;-58
2022/03/23 21:59:58;;;;;;;9.80;4.95;;;17.50;58.00;;;;;;10416086;28;20355;-58
2022/03/23 22:04:59;;;;;;;8.93;5.25;;;17.40;57.90;;;;;;10368026;28;20488;-58
2022/03/23 22:10:00;;;;;;;9.73;5.78;;;17.40;57.80;;;;;;10415890;28;20037;-58
2022/03/23 22:15:07;;;;;;;10.70;5.85;;;17.40;57.70;;;;;;10384089;28;20061;-58
2022/03/23 22:20:10;;;;;;;10.75;5.22;;;17.40;57.70;;;;;;10415146;28;20084;-58
2022/03/23 22:25:11;;;;;;;8.38;4.65;;;17.40;57.70;;;;;;10413551;28;20029;-58
2022/03/23 22:30:14;;;;;;;10.93;5.25;;;17.40;57.60;;;;;;10414007;28;20128;-58
2022/03/23 22:35:15;;;;;;;9.52;5.13;;;17.40;57.50;;;;;;10342718;28;20038;-58
2022/03/23 22:40:16;;;;;;;17.25;5.47;;;17.30;57.40;;;;;;10373823;28;20049;-58
2022/03/23 22:45:19;;;;;;;10.95;5.30;;;17.30;57.40;;;;;;10373866;28;20142;-57
2022/03/23 22:50:21;;;;;;;8.30;4.95;;;17.30;57.40;;;;;;10373770;28;20029;-57
2022/03/23 22:55:22;;;;;;;7.32;5.05;;;17.30;57.30;;;;;;10371335;28;20029;-58
2022/03/23 23:00:25;;;;;;;9.18;5.30;;;17.30;57.30;;;;;;10412032;28;20112;-57
2022/03/23 23:05:27;;;;;;;9.10;5.57;;;17.30;57.20;;;;;;10373133;28;20092;-58
2022/03/23 23:10:29;;;;;;;8.32;4.85;;;17.30;57.20;;;;;;10355059;28;20037;-58
2022/03/23 23:15:30;;;;;;;7.68;4.95;;;17.30;57.20;;;;;;10372662;28;20095;-58
2022/03/23 23:20:32;;;;;;;9.45;4.90;;;17.20;57.10;;;;;;10372494;28;20032;-58
2022/03/23 23:25:36;;;;;;;10.38;5.15;;;17.20;57.10;;;;;;10372734;28;20056;-57
2022/03/23 23:30:36;;;;;;;7.57;5.07;;;17.20;57.10;;;;;;10372232;28;20069;-58
2022/03/23 23:35:37;;;;;;;9.40;5.22;;;17.20;57.00;;;;;;10385812;28;20037;-58
2022/03/23 23:40:38;;;;;;;8.65;5.13;;;17.20;56.90;;;;;;10412855;28;20037;-58
2022/03/23 23:45:38;;;;;;;8.63;4.82;;;17.20;56.80;;;;;;10411943;28;20508;-58
2022/03/23 23:50:39;;;;;;;6.38;4.20;;;17.20;56.80;;;;;;10411842;28;20087;-57
2022/03/23 23:55:41;;;;;;;8.77;4.80;;;17.20;56.70;;;;;;10381329;28;20037;-57
